createdAt,value
2018-06-12T00:00:03.243Z,15.40
2018-06-12T00:02:33.490Z,15.40
2018-06-12T00:05:03.626Z,15.30
2018-06-12T00:07:33.891Z,15.30
2018-06-12T00:10:04.023Z,15.20
2018-06-12T00:12:34.307Z,15.20
2018-06-12T00:15:04.459Z,15.20
2018-06-12T00:17:35.010Z,15.30
2018-06-12T00:20:05.371Z,15.20
2018-06-12T00:22:35.621Z,15.20
2018-06-12T00:25:05.914Z,15.20
2018-06-12T00:27:36.224Z,15.20
2018-06-12T00:30:06.355Z,15.20
2018-06-12T00:32:36.618Z,15.20
2018-06-12T00:35:06.850Z,15.20
2018-06-12T00:37:37.000Z,15.20
2018-06-12T00:40:07.258Z,15.10
2018-06-12T00:42:37.388Z,15.00
2018-06-12T00:45:07.622Z,15.00
2018-06-12T00:47:37.767Z,15.10
2018-06-12T00:50:07.983Z,15.20
2018-06-12T00:52:38.119Z,15.10
2018-06-12T00:55:08.395Z,15.00
2018-06-12T00:57:38.515Z,15.00
2018-06-12T01:00:08.778Z,15.00
2018-06-12T01:02:38.904Z,15.10
2018-06-12T01:05:09.151Z,15.00
2018-06-12T01:07:50.291Z,15.00
2018-06-12T01:10:20.602Z,15.00
2018-06-12T01:12:50.738Z,15.00
2018-06-12T01:15:21.042Z,15.00
2018-06-12T01:17:51.184Z,15.10
2018-06-12T01:20:21.439Z,15.10
2018-06-12T01:22:51.570Z,15.00
2018-06-12T01:25:21.919Z,15.00
2018-06-12T01:27:52.135Z,15.00
2018-06-12T01:30:22.382Z,15.00
2018-06-12T01:32:52.496Z,14.90
2018-06-12T01:35:22.914Z,14.90
2018-06-12T01:37:53.146Z,14.90
2018-06-12T01:40:23.538Z,15.00
2018-06-12T01:42:53.788Z,15.00
2018-06-12T01:45:24.023Z,15.10
2018-06-12T01:47:54.263Z,15.10
2018-06-12T01:50:24.404Z,15.00
2018-06-12T01:52:54.706Z,15.10
2018-06-12T01:55:24.859Z,15.00
2018-06-12T01:57:55.120Z,15.00
2018-06-12T02:00:25.856Z,15.00
2018-06-12T02:02:56.110Z,15.00
2018-06-12T02:05:26.254Z,15.00
2018-06-12T02:07:56.514Z,15.00
2018-06-12T02:10:26.639Z,15.10
2018-06-12T02:12:56.939Z,15.00
2018-06-12T02:15:27.071Z,15.00
2018-06-12T02:17:57.335Z,15.00
2018-06-12T02:20:27.487Z,15.10
2018-06-12T02:22:57.827Z,15.00
2018-06-12T02:25:28.071Z,15.00
2018-06-12T02:27:58.323Z,15.00
2018-06-12T02:30:28.466Z,14.90
2018-06-12T02:32:58.730Z,14.90
2018-06-12T02:35:28.986Z,14.90
2018-06-12T02:37:59.122Z,14.90
2018-06-12T02:40:29.588Z,14.90
2018-06-12T02:42:59.706Z,15.00
2018-06-12T02:45:29.943Z,14.90
2018-06-12T02:48:00.131Z,14.90
2018-06-12T02:50:30.398Z,14.90
2018-06-12T02:53:00.554Z,14.90
2018-06-12T02:55:30.894Z,14.90
2018-06-12T02:58:01.043Z,14.90
2018-06-12T03:00:31.311Z,14.90
2018-06-12T03:03:01.483Z,15.00
2018-06-12T03:05:31.728Z,15.00
2018-06-12T03:08:01.874Z,15.00
2018-06-12T03:10:32.117Z,14.90
2018-06-12T03:13:02.264Z,14.90
2018-06-12T03:15:32.744Z,14.90
2018-06-12T03:18:02.899Z,14.90
2018-06-12T03:20:43.911Z,14.90
2018-06-12T03:23:14.111Z,14.90
2018-06-12T03:25:44.442Z,14.90
2018-06-12T03:28:14.615Z,14.90
2018-06-12T03:30:44.930Z,14.90
2018-06-12T03:33:15.066Z,14.90
2018-06-12T03:35:45.366Z,15.00
2018-06-12T03:38:15.520Z,15.00
2018-06-12T03:40:45.767Z,15.00
2018-06-12T03:43:16.041Z,15.00
2018-06-12T03:45:46.198Z,15.00
2018-06-12T03:48:16.531Z,15.00
2018-06-12T03:50:46.665Z,15.00
2018-06-12T03:53:16.878Z,15.10
2018-06-12T03:55:47.011Z,15.20
2018-06-12T03:58:17.298Z,15.20
2018-06-12T04:00:47.430Z,15.10
2018-06-12T04:03:17.659Z,15.10
2018-06-12T04:05:47.792Z,15.10
2018-06-12T04:08:18.015Z,15.20
2018-06-12T04:10:48.148Z,15.30
2018-06-12T04:13:18.370Z,15.20
2018-06-12T04:15:48.503Z,15.20
2018-06-12T04:18:18.718Z,15.20
2018-06-12T04:20:48.854Z,15.20
2018-06-12T04:23:19.112Z,15.30
2018-06-12T04:25:49.410Z,15.30
2018-06-12T04:28:19.639Z,15.30
2018-06-12T04:30:49.913Z,15.40
2018-06-12T04:33:20.057Z,15.40
2018-06-12T04:35:50.307Z,15.40
2018-06-12T04:38:20.450Z,15.40
2018-06-12T04:40:50.998Z,15.40
2018-06-12T04:43:21.185Z,15.40
2018-06-12T04:45:51.377Z,15.40
2018-06-12T04:48:21.557Z,15.50
2018-06-12T04:50:51.790Z,15.50
2018-06-12T04:53:21.963Z,15.50
2018-06-12T04:55:52.202Z,15.60
2018-06-12T04:58:22.393Z,15.70
2018-06-12T05:00:52.594Z,15.80
2018-06-12T05:03:22.738Z,15.80
2018-06-12T05:05:52.962Z,15.80
2018-06-12T05:08:23.098Z,15.90
2018-06-12T05:10:53.586Z,16.10
2018-06-12T05:13:23.719Z,16.20
2018-06-12T05:15:53.953Z,16.20
2018-06-12T05:18:24.186Z,16.20
2018-06-12T05:20:54.380Z,16.20
2018-06-12T05:23:24.598Z,16.30
2018-06-12T05:25:54.876Z,16.40
2018-06-12T05:28:25.108Z,16.60
2018-06-12T05:30:55.260Z,16.60
2018-06-12T05:33:25.542Z,16.60
2018-06-12T05:35:55.709Z,16.60
2018-06-12T05:38:25.936Z,16.60
2018-06-12T05:40:56.087Z,16.50
2018-06-12T05:43:26.333Z,16.50
2018-06-12T05:45:56.502Z,16.60
2018-06-12T05:48:26.738Z,16.60
2018-06-12T05:50:56.914Z,16.50
2018-06-12T05:53:27.208Z,16.50
2018-06-12T05:55:57.310Z,16.50
2018-06-12T05:58:27.608Z,16.60
2018-06-12T06:00:57.781Z,16.90
2018-06-12T06:03:28.038Z,17.00
2018-06-12T06:05:58.176Z,17.50
2018-06-12T06:08:34.638Z,17.80
2018-06-12T06:11:04.782Z,18.20
2018-06-12T06:13:35.018Z,18.30
2018-06-12T06:16:05.258Z,18.30
2018-06-12T06:18:35.523Z,18.20
2018-06-12T06:21:05.760Z,18.30
2018-06-12T06:23:35.923Z,18.40
2018-06-12T06:26:06.256Z,18.70
2018-06-12T06:28:36.390Z,18.80
2018-06-12T06:31:06.632Z,18.80
2018-06-12T06:33:36.826Z,18.50
2018-06-12T06:36:07.062Z,18.10
2018-06-12T06:38:37.206Z,18.20
2018-06-12T06:41:07.514Z,18.10
2018-06-12T06:43:37.679Z,18.30
2018-06-12T06:46:07.935Z,18.20
2018-06-12T06:48:38.063Z,17.90
2018-06-12T06:51:08.334Z,18.00
2018-06-12T06:53:38.517Z,17.90
2018-06-12T06:56:08.721Z,17.70
2018-06-12T06:58:38.865Z,17.70
2018-06-12T07:01:09.125Z,17.70
2018-06-12T07:03:39.298Z,17.70
2018-06-12T07:06:09.549Z,17.70
2018-06-12T07:08:39.704Z,17.70
2018-06-12T07:11:10.047Z,17.50
2018-06-12T07:13:40.190Z,17.40
2018-06-12T07:16:10.459Z,17.60
2018-06-12T07:18:40.591Z,17.50
2018-06-12T07:21:19.274Z,17.40
2018-06-12T07:23:49.486Z,17.30
2018-06-12T07:26:19.843Z,17.20
2018-06-12T07:28:49.997Z,17.10
2018-06-12T07:31:20.247Z,17.20
2018-06-12T07:33:50.386Z,17.40
2018-06-12T07:36:20.683Z,17.70
2018-06-12T07:38:50.914Z,17.60
2018-06-12T07:41:21.194Z,17.60
2018-06-12T07:43:51.337Z,17.50
2018-06-12T07:46:21.596Z,17.70
2018-06-12T07:48:51.827Z,17.70
2018-06-12T07:51:21.975Z,17.60
2018-06-12T07:53:52.198Z,17.50
2018-06-12T07:56:22.343Z,17.20
2018-06-12T07:58:52.583Z,17.20
2018-06-12T08:01:22.754Z,17.40
2018-06-12T08:03:53.003Z,17.50
2018-06-12T08:06:23.202Z,17.60
2018-06-12T08:08:53.447Z,17.70
2018-06-12T08:11:23.587Z,17.30
2018-06-12T08:13:53.857Z,17.30
2018-06-12T08:16:23.993Z,17.50
2018-06-12T08:18:54.247Z,17.60
2018-06-12T08:21:24.383Z,17.70
2018-06-12T08:23:54.634Z,17.70
2018-06-12T08:26:24.958Z,17.70
2018-06-12T08:28:55.095Z,17.80
2018-06-12T08:31:25.323Z,17.90
2018-06-12T08:33:55.471Z,17.80
2018-06-12T08:36:25.735Z,17.70
2018-06-12T08:38:55.882Z,17.70
2018-06-12T08:41:26.150Z,17.60
2018-06-12T08:43:56.315Z,17.50
2018-06-12T08:46:26.594Z,17.50
2018-06-12T08:48:56.707Z,17.70
2018-06-12T08:51:26.970Z,17.80
2018-06-12T08:53:57.120Z,17.90
2018-06-12T08:56:27.390Z,17.90
2018-06-12T08:58:57.546Z,18.00
2018-06-12T09:01:27.790Z,18.20
2018-06-12T09:03:57.918Z,18.20
2018-06-12T09:06:28.550Z,18.30
2018-06-12T09:08:58.691Z,18.20
2018-06-12T09:11:28.935Z,18.10
2018-06-12T09:13:59.155Z,18.00
2018-06-12T09:16:29.492Z,17.90
2018-06-12T09:18:59.734Z,17.90
2018-06-12T09:21:29.870Z,17.50
2018-06-12T09:24:00.107Z,17.30
2018-06-12T09:26:30.350Z,17.20
2018-06-12T09:29:00.578Z,17.00
2018-06-12T09:31:30.763Z,16.80
2018-06-12T09:34:00.986Z,16.80
2018-06-12T09:36:34.696Z,16.90
2018-06-12T09:39:08.623Z,17.10
2018-06-12T09:41:38.823Z,17.30
2018-06-12T09:44:09.065Z,17.70
2018-06-12T09:46:39.210Z,17.90
2018-06-12T09:49:09.496Z,18.30
2018-06-12T09:51:39.679Z,18.30
2018-06-12T09:54:09.914Z,18.30
2018-06-12T09:56:40.069Z,18.70
2018-06-12T09:59:10.320Z,19.20
2018-06-12T10:01:40.506Z,19.30
2018-06-12T10:04:10.756Z,19.80
2018-06-12T10:06:40.895Z,19.70
2018-06-12T10:09:11.156Z,19.50
2018-06-12T10:11:41.356Z,19.50
2018-06-12T10:14:11.679Z,19.30
2018-06-12T10:16:41.827Z,19.20
2018-06-12T10:19:12.094Z,18.90
2018-06-12T10:21:42.235Z,18.80
2018-06-12T10:24:12.502Z,18.80
2018-06-12T10:26:42.849Z,18.60
2018-06-12T10:29:13.006Z,18.60
2018-06-12T10:31:43.258Z,18.80
2018-06-12T10:34:13.378Z,19.00
2018-06-12T10:36:43.635Z,19.00
2018-06-12T10:39:13.795Z,19.30
2018-06-12T10:41:44.026Z,19.50
2018-06-12T10:44:14.176Z,19.30
2018-06-12T10:46:44.412Z,19.30
2018-06-12T10:49:14.563Z,19.30
2018-06-12T10:51:44.830Z,19.60
2018-06-12T10:54:15.008Z,20.10
2018-06-12T10:56:45.242Z,20.70
2018-06-12T10:59:15.377Z,20.90
2018-06-12T11:01:45.690Z,20.40
2018-06-12T11:04:15.846Z,20.20
2018-06-12T11:06:46.108Z,20.10
2018-06-12T11:09:16.267Z,20.10
2018-06-12T11:11:46.518Z,20.10
2018-06-12T11:14:16.688Z,19.80
2018-06-12T11:16:46.965Z,19.40
2018-06-12T11:19:17.427Z,19.10
2018-06-12T11:21:47.736Z,19.00
2018-06-12T11:24:17.878Z,19.10
2018-06-12T11:26:48.240Z,19.40
2018-06-12T11:29:18.441Z,19.50
2018-06-12T11:31:48.747Z,19.70
2018-06-12T11:34:19.004Z,19.60
2018-06-12T11:36:49.162Z,19.70
2018-06-12T11:39:19.411Z,19.90
2018-06-12T11:41:49.564Z,20.00
2018-06-12T11:44:19.840Z,19.90
2018-06-12T11:46:49.973Z,19.70
2018-06-12T11:49:20.234Z,18.90
2018-06-12T11:51:50.378Z,18.70
2018-06-12T11:54:20.629Z,18.70
2018-06-12T11:56:50.767Z,19.00
2018-06-12T11:59:21.018Z,19.10
2018-06-12T12:01:51.212Z,19.50
2018-06-12T12:04:21.487Z,19.80
2018-06-12T12:06:51.636Z,20.10
2018-06-12T12:09:21.880Z,20.20
2018-06-12T12:11:52.006Z,20.20
2018-06-12T12:14:22.250Z,19.80
2018-06-12T12:16:52.405Z,19.50
2018-06-12T12:19:22.646Z,19.40
2018-06-12T12:21:52.860Z,19.40
2018-06-12T12:24:23.096Z,19.20
2018-06-12T12:26:53.334Z,19.20
2018-06-12T12:29:23.611Z,19.50
2018-06-12T12:31:53.789Z,19.50
2018-06-12T12:34:24.126Z,19.50
2018-06-12T12:36:54.258Z,19.50
2018-06-12T12:39:24.620Z,19.50
2018-06-12T12:41:54.864Z,19.80
2018-06-12T12:44:25.002Z,20.20
2018-06-12T12:46:55.787Z,20.20
2018-06-12T12:49:25.930Z,20.00
2018-06-12T12:51:56.194Z,20.40
2018-06-12T12:54:26.330Z,20.40
2018-06-12T12:56:56.575Z,20.10
2018-06-12T12:59:29.670Z,20.10
2018-06-12T13:01:59.923Z,20.00
2018-06-12T13:04:30.077Z,19.70
2018-06-12T13:07:00.447Z,19.80
2018-06-12T13:09:30.621Z,19.60
2018-06-12T13:12:00.850Z,19.60
2018-06-12T13:14:30.978Z,19.30
2018-06-12T13:17:01.231Z,19.20
2018-06-12T13:19:31.439Z,19.20
2018-06-12T13:22:01.688Z,19.10
2018-06-12T13:24:31.995Z,18.70
2018-06-12T13:27:02.233Z,18.50
2018-06-12T13:29:32.502Z,18.50
2018-06-12T13:32:02.643Z,18.50
2018-06-12T13:34:32.954Z,18.50
2018-06-12T13:37:03.088Z,18.60
2018-06-12T13:39:33.330Z,18.80
2018-06-12T13:42:03.487Z,18.90
2018-06-12T13:44:33.726Z,18.90
2018-06-12T13:47:03.884Z,19.30
2018-06-12T13:49:34.179Z,19.40
2018-06-12T13:52:04.310Z,19.60
2018-06-12T13:54:34.684Z,19.90
2018-06-12T13:57:04.920Z,19.80
2018-06-12T13:59:35.162Z,19.60
2018-06-12T14:02:05.375Z,19.40
2018-06-12T14:04:35.679Z,19.30
2018-06-12T14:07:05.867Z,19.30
2018-06-12T14:09:36.093Z,19.40
2018-06-12T14:12:06.354Z,19.40
2018-06-12T14:14:36.629Z,19.40
2018-06-12T14:17:06.792Z,19.20
2018-06-12T14:19:37.028Z,19.00
2018-06-12T14:22:07.344Z,18.80
2018-06-12T14:24:37.746Z,18.60
2018-06-12T14:27:07.998Z,18.30
2018-06-12T14:29:38.254Z,18.20
2018-06-12T14:32:08.390Z,18.10
2018-06-12T14:34:38.743Z,18.20
2018-06-12T14:37:09.034Z,18.30
2018-06-12T14:39:39.223Z,18.30
2018-06-12T14:42:09.509Z,18.40
2018-06-12T14:44:39.670Z,18.30
2018-06-12T14:47:09.925Z,18.40
2018-06-12T14:49:40.146Z,18.40
2018-06-12T14:52:10.411Z,18.40
2018-06-12T14:54:40.598Z,18.50
2018-06-12T14:57:10.867Z,18.40
2018-06-12T14:59:41.026Z,18.30
2018-06-12T15:02:11.279Z,18.30
2018-06-12T15:04:41.450Z,18.20
2018-06-12T15:07:11.875Z,18.40
2018-06-12T15:09:42.047Z,18.50
2018-06-12T15:12:12.336Z,18.70
2018-06-12T15:14:42.545Z,18.80
2018-06-12T15:17:12.875Z,18.90
2018-06-12T15:19:43.080Z,18.70
2018-06-12T15:22:13.397Z,18.50
2018-06-12T15:24:43.558Z,18.30
2018-06-12T15:27:13.943Z,18.30
2018-06-12T15:29:44.171Z,18.40
2018-06-12T15:32:14.467Z,18.40
2018-06-12T15:34:44.638Z,18.40
2018-06-12T15:37:14.911Z,18.60
2018-06-12T15:39:45.250Z,18.60
2018-06-12T15:42:15.448Z,18.50
2018-06-12T15:44:45.851Z,18.40
2018-06-12T15:47:15.945Z,18.40
2018-06-12T15:49:46.230Z,18.40
2018-06-12T15:52:16.432Z,18.50
2018-06-12T15:54:46.714Z,18.70
2018-06-12T15:57:16.886Z,18.90
2018-06-12T15:59:47.140Z,18.80
2018-06-12T16:02:17.295Z,18.80
2018-06-12T16:04:47.587Z,18.70
2018-06-12T16:07:17.745Z,18.50
2018-06-12T16:09:47.980Z,18.40
2018-06-12T16:12:18.122Z,18.20
2018-06-12T16:14:48.378Z,18.10
2018-06-12T16:17:18.530Z,18.20
2018-06-12T16:19:48.809Z,18.20
2018-06-12T16:22:18.974Z,18.10
2018-06-12T16:24:49.245Z,18.00
2018-06-12T16:27:19.498Z,17.90
2018-06-12T16:29:49.754Z,17.90
2018-06-12T16:32:20.045Z,17.80
2018-06-12T16:34:50.208Z,17.60
2018-06-12T16:37:20.462Z,17.60
2018-06-12T16:39:50.611Z,17.50
2018-06-12T16:42:20.935Z,17.50
2018-06-12T16:44:51.080Z,17.70
2018-06-12T16:47:21.310Z,17.60
2018-06-12T16:49:51.454Z,17.50
2018-06-12T16:52:21.691Z,17.60
2018-06-12T16:54:51.827Z,17.60
2018-06-12T16:57:22.061Z,17.50
2018-06-12T16:59:52.200Z,17.50
2018-06-12T17:02:22.446Z,17.50
2018-06-12T17:04:52.585Z,17.40
2018-06-12T17:07:22.838Z,17.30
2018-06-12T17:09:52.981Z,17.20
2018-06-12T17:12:23.263Z,17.00
2018-06-12T17:14:53.435Z,16.90
2018-06-12T17:17:23.748Z,16.90
2018-06-12T17:19:54.076Z,16.90
2018-06-12T17:22:24.204Z,16.90
2018-06-12T17:24:54.471Z,16.70
2018-06-12T17:27:24.717Z,16.70
2018-06-12T17:29:55.024Z,16.70
2018-06-12T17:32:25.192Z,16.70
2018-06-12T17:34:55.450Z,16.60
2018-06-12T17:37:25.581Z,16.60
2018-06-12T17:39:55.874Z,16.60
2018-06-12T17:42:26.039Z,16.60
2018-06-12T17:44:56.279Z,16.60
2018-06-12T17:47:26.422Z,16.70
2018-06-12T17:49:56.703Z,16.60
2018-06-12T17:52:26.846Z,16.70
2018-06-12T17:54:57.196Z,16.60
2018-06-12T17:57:27.290Z,16.50
2018-06-12T17:59:57.635Z,16.50
2018-06-12T18:02:27.791Z,16.50
2018-06-12T18:04:58.267Z,16.50
2018-06-12T18:07:28.418Z,16.50
2018-06-12T18:09:58.663Z,16.50
2018-06-12T18:12:28.904Z,16.50
2018-06-12T18:14:59.163Z,16.40
2018-06-12T18:17:29.471Z,16.40
2018-06-12T18:20:01.611Z,16.20
2018-06-12T18:22:32.370Z,16.20
2018-06-12T18:25:02.563Z,16.20
2018-06-12T18:27:32.884Z,16.10
2018-06-12T18:30:02.986Z,16.00
2018-06-12T18:32:33.227Z,16.00
2018-06-12T18:35:03.448Z,16.00
2018-06-12T18:37:33.713Z,16.10
2018-06-12T18:40:03.887Z,16.00
2018-06-12T18:42:34.134Z,16.00
2018-06-12T18:45:04.310Z,16.00
2018-06-12T18:47:34.568Z,16.00
2018-06-12T18:50:04.755Z,16.00
2018-06-12T18:52:35.008Z,16.00
2018-06-12T18:55:05.583Z,16.00
2018-06-12T18:57:35.826Z,16.10
2018-06-12T19:00:06.805Z,16.00
2018-06-12T19:02:37.062Z,16.10
2018-06-12T19:05:07.231Z,16.10
2018-06-12T19:07:37.473Z,16.00
2018-06-12T19:10:07.759Z,16.00
2018-06-12T19:12:37.917Z,16.00
2018-06-12T19:15:08.177Z,16.00
2018-06-12T19:17:39.707Z,15.90
2018-06-12T19:20:10.520Z,15.80
2018-06-12T19:22:40.675Z,15.80
2018-06-12T19:25:10.939Z,15.80
2018-06-12T19:27:41.209Z,15.80
2018-06-12T19:30:11.532Z,15.70
2018-06-12T19:32:41.767Z,15.60
2018-06-12T19:35:12.028Z,15.60
2018-06-12T19:37:42.175Z,15.60
2018-06-12T19:40:12.572Z,15.50
2018-06-12T19:42:42.755Z,15.50
2018-06-12T19:45:13.017Z,15.50
2018-06-12T19:47:43.206Z,15.50
2018-06-12T19:50:13.410Z,15.50
2018-06-12T19:52:43.654Z,15.50
2018-06-12T19:55:13.831Z,15.50
2018-06-12T19:57:44.051Z,15.50
2018-06-12T20:00:14.222Z,15.50
2018-06-12T20:02:44.455Z,15.50
2018-06-12T20:05:14.593Z,15.50
2018-06-12T20:07:45.765Z,15.40
2018-06-12T20:10:15.943Z,15.40
2018-06-12T20:12:46.227Z,15.40
2018-06-12T20:15:16.348Z,15.40
2018-06-12T20:17:46.570Z,15.40
2018-06-12T20:20:16.731Z,15.30
2018-06-12T20:22:46.986Z,15.40
2018-06-12T20:25:17.178Z,15.40
2018-06-12T20:27:47.601Z,15.40
2018-06-12T20:30:17.842Z,15.40
2018-06-12T20:32:47.987Z,15.30
2018-06-12T20:35:18.266Z,15.20
2018-06-12T20:37:48.442Z,15.20
2018-06-12T20:40:18.725Z,15.20
2018-06-12T20:42:48.914Z,15.20
2018-06-12T20:45:19.131Z,15.30
2018-06-12T20:47:49.281Z,15.30
2018-06-12T20:50:19.514Z,15.20
2018-06-12T20:52:49.669Z,15.20
2018-06-12T20:55:19.910Z,15.20
2018-06-12T20:57:50.054Z,15.20
2018-06-12T21:00:20.302Z,15.20
2018-06-12T21:02:50.462Z,15.30
2018-06-12T21:05:20.754Z,15.30
2018-06-12T21:07:50.895Z,15.20
2018-06-12T21:10:21.151Z,15.30
2018-06-12T21:12:51.282Z,15.30
2018-06-12T21:15:21.559Z,15.30
2018-06-12T21:17:51.799Z,15.10
2018-06-12T21:20:21.938Z,15.10
2018-06-12T21:22:52.381Z,15.00
2018-06-12T21:25:22.523Z,15.00
2018-06-12T21:27:52.833Z,15.00
2018-06-12T21:30:23.012Z,14.90
2018-06-12T21:32:53.242Z,14.80
2018-06-12T21:35:23.393Z,14.80
2018-06-12T21:37:53.658Z,14.80
2018-06-12T21:40:23.808Z,14.70
2018-06-12T21:42:54.048Z,14.60
2018-06-12T21:45:24.194Z,14.40
2018-06-12T21:47:54.468Z,14.40
2018-06-12T21:50:24.646Z,14.40
2018-06-12T21:52:54.886Z,14.40
2018-06-12T21:55:24.997Z,14.30
2018-06-12T21:57:55.237Z,14.40
2018-06-12T22:00:35.974Z,14.30
2018-06-12T22:03:06.549Z,14.30
2018-06-12T22:05:36.947Z,14.30
2018-06-12T22:08:07.198Z,14.30
2018-06-12T22:10:37.338Z,14.20
2018-06-12T22:13:07.559Z,14.30
2018-06-12T22:15:37.800Z,14.30
2018-06-12T22:18:07.937Z,14.30
2018-06-12T22:20:38.330Z,14.20
2018-06-12T22:23:08.479Z,14.10
2018-06-12T22:25:38.734Z,14.10
2018-06-12T22:28:08.978Z,14.10
2018-06-12T22:30:39.301Z,14.00
2018-06-12T22:33:09.447Z,14.00
2018-06-12T22:35:39.703Z,14.00
2018-06-12T22:38:09.846Z,14.00
2018-06-12T22:40:40.100Z,13.90
2018-06-12T22:43:10.322Z,14.00
2018-06-12T22:45:40.600Z,14.00
2018-06-12T22:48:10.686Z,14.00
2018-06-12T22:50:40.922Z,13.90
2018-06-12T22:53:11.043Z,13.90
2018-06-12T22:55:41.285Z,13.90
2018-06-12T22:58:11.442Z,13.90
2018-06-12T23:00:41.683Z,13.90
2018-06-12T23:03:11.995Z,13.80
2018-06-12T23:05:42.242Z,13.80
2018-06-12T23:08:12.394Z,13.70
2018-06-12T23:10:42.634Z,13.60
2018-06-12T23:13:12.798Z,13.60
2018-06-12T23:15:43.059Z,13.50
2018-06-12T23:18:13.210Z,13.50
2018-06-12T23:20:59.289Z,13.50
2018-06-12T23:23:29.450Z,13.50
2018-06-12T23:25:59.901Z,13.60
2018-06-12T23:28:30.155Z,13.50
2018-06-12T23:31:00.299Z,13.40
2018-06-12T23:33:30.568Z,13.50
2018-06-12T23:36:00.706Z,13.60
2018-06-12T23:38:30.967Z,13.60
2018-06-12T23:41:01.097Z,13.60
2018-06-12T23:43:31.343Z,13.60
2018-06-12T23:46:01.479Z,13.60
2018-06-12T23:48:31.724Z,13.60
2018-06-12T23:51:01.850Z,13.50
2018-06-12T23:53:32.109Z,13.50
2018-06-12T23:56:02.247Z,13.50
2018-06-12T23:58:32.542Z,13.60
